sensor_id;sensor_type;location;lat;lon;timestamp;pressure;altitude;pressure_sealevel;temperature;humidity
61026;BME280;46911;32.650;-16.902;2023-09-19T00:02:05;101976.78;;;19.66;63.76
61026;BME280;46911;32.650;-16.902;2023-09-19T00:04:13;101983.56;;;19.60;64.24
61026;BME280;46911;32.650;-16.902;2023-09-19T00:06:15;101978.56;;;19.55;64.69
61026;BME280;46911;32.650;-16.902;2023-09-19T00:08:16;101983.25;;;19.53;64.97
61026;BME280;46911;32.650;-16.902;2023-09-19T00:10:17;101975.53;;;19.49;65.15
61026;BME280;46911;32.650;-16.902;2023-09-19T00:12:22;101969.31;;;19.58;64.31
61026;BME280;46911;32.650;-16.902;2023-09-19T00:14:25;101966.16;;;19.53;64.53
61026;BME280;46911;32.650;-16.902;2023-09-19T00:16:30;101965.88;;;19.56;63.95
61026;BME280;46911;32.650;-16.902;2023-09-19T00:18:30;101977.91;;;19.63;64.08
61026;BME280;46911;32.650;-16.902;2023-09-19T00:20:35;101965.22;;;19.64;64.25
61026;BME280;46911;32.650;-16.902;2023-09-19T00:22:39;101951.66;;;19.54;64.38
61026;BME280;46911;32.650;-16.902;2023-09-19T00:24:43;101957.75;;;19.56;64.72
61026;BME280;46911;32.650;-16.902;2023-09-19T00:26:47;101939.03;;;19.43;64.69
61026;BME280;46911;32.650;-16.902;2023-09-19T00:28:52;101955.00;;;19.46;64.45
61026;BME280;46911;32.650;-16.902;2023-09-19T00:30:57;101951.13;;;19.39;65.33
61026;BME280;46911;32.650;-16.902;2023-09-19T00:33:06;101953.97;;;19.37;65.31
61026;BME280;46911;32.650;-16.902;2023-09-19T00:35:10;101951.50;;;19.34;64.97
61026;BME280;46911;32.650;-16.902;2023-09-19T00:37:11;101963.06;;;19.36;65.17
61026;BME280;46911;32.650;-16.902;2023-09-19T00:39:15;101941.34;;;19.27;65.35
61026;BME280;46911;32.650;-16.902;2023-09-19T00:41:16;101957.19;;;19.31;65.42
61026;BME280;46911;32.650;-16.902;2023-09-19T00:43:20;101954.00;;;19.26;65.39
61026;BME280;46911;32.650;-16.902;2023-09-19T00:45:22;101950.47;;;19.26;65.26
61026;BME280;46911;32.650;-16.902;2023-09-19T00:47:24;101945.44;;;19.21;65.58
61026;BME280;46911;32.650;-16.902;2023-09-19T00:49:28;101945.44;;;19.21;65.48
61026;BME280;46911;32.650;-16.902;2023-09-19T00:51:37;101957.00;;;19.23;64.93
61026;BME280;46911;32.650;-16.902;2023-09-19T00:53:38;101953.16;;;19.26;64.81
61026;BME280;46911;32.650;-16.902;2023-09-19T00:55:40;101961.38;;;19.24;64.85
61026;BME280;46911;32.650;-16.902;2023-09-19T00:57:43;101947.53;;;19.17;65.05
61026;BME280;46911;32.650;-16.902;2023-09-19T00:59:47;101917.38;;;19.01;65.00
61026;BME280;46911;32.650;-16.902;2023-09-19T01:01:53;101919.38;;;18.99;64.62
61026;BME280;46911;32.650;-16.902;2023-09-19T01:03:54;101940.81;;;19.12;64.09
61026;BME280;46911;32.650;-16.902;2023-09-19T01:05:56;101944.13;;;19.15;64.91
61026;BME280;46911;32.650;-16.902;2023-09-19T01:07:59;101933.34;;;19.04;64.90
61026;BME280;46911;32.650;-16.902;2023-09-19T01:10:02;101925.63;;;18.99;65.50
61026;BME280;46911;32.650;-16.902;2023-09-19T01:12:09;101931.16;;;18.98;65.32
61026;BME280;46911;32.650;-16.902;2023-09-19T01:14:34;101936.19;;;19.02;64.95
61026;BME280;46911;32.650;-16.902;2023-09-19T01:16:43;101931.78;;;19.01;64.67
61026;BME280;46911;32.650;-16.902;2023-09-19T01:19:25;101933.22;;;19.05;64.95
61026;BME280;46911;32.650;-16.902;2023-09-19T01:22:00;101920.69;;;19.04;65.17
61026;BME280;46911;32.650;-16.902;2023-09-19T01:24:58;101930.25;;;19.09;65.60
61026;BME280;46911;32.650;-16.902;2023-09-19T01:30:01;101918.75;;;18.95;65.14
61026;BME280;46911;32.650;-16.902;2023-09-19T01:32:06;101915.22;;;18.83;65.52
61026;BME280;46911;32.650;-16.902;2023-09-19T01:34:10;101921.00;;;18.90;65.49
61026;BME280;46911;32.650;-16.902;2023-09-19T01:36:11;101922.72;;;18.91;65.29
61026;BME280;46911;32.650;-16.902;2023-09-19T01:38:14;101915.59;;;18.90;65.04
61026;BME280;46911;32.650;-16.902;2023-09-19T01:40:21;101919.28;;;18.89;65.42
61026;BME280;46911;32.650;-16.902;2023-09-19T01:44:44;101910.31;;;18.88;64.57
61026;BME280;46911;32.650;-16.902;2023-09-19T01:46:48;101915.31;;;18.93;65.41
61026;BME280;46911;32.650;-16.902;2023-09-19T01:49:00;101908.91;;;19.05;64.51
61026;BME280;46911;32.650;-16.902;2023-09-19T01:51:10;101911.19;;;19.10;64.17
61026;BME280;46911;32.650;-16.902;2023-09-19T01:55:48;101897.63;;;19.21;63.31
61026;BME280;46911;32.650;-16.902;2023-09-19T01:58:33;101892.84;;;19.35;63.96
61026;BME280;46911;32.650;-16.902;2023-09-19T02:00:32;101887.19;;;19.38;63.48
61026;BME280;46911;32.650;-16.902;2023-09-19T02:02:38;101892.31;;;19.41;63.60
61026;BME280;46911;32.650;-16.902;2023-09-19T02:04:40;101885.78;;;19.44;63.08
61026;BME280;46911;32.650;-16.902;2023-09-19T02:06:46;101896.47;;;19.45;63.52
61026;BME280;46911;32.650;-16.902;2023-09-19T02:08:50;101894.03;;;19.42;63.18
61026;BME280;46911;32.650;-16.902;2023-09-19T02:10:53;101881.47;;;19.41;63.05
61026;BME280;46911;32.650;-16.902;2023-09-19T02:12:54;101884.75;;;19.35;63.52
61026;BME280;46911;32.650;-16.902;2023-09-19T02:15:02;101864.88;;;19.24;63.48
61026;BME280;46911;32.650;-16.902;2023-09-19T02:17:04;101878.00;;;19.29;63.79
61026;BME280;46911;32.650;-16.902;2023-09-19T02:19:10;101869.09;;;19.17;64.19
61026;BME280;46911;32.650;-16.902;2023-09-19T02:21:13;101868.38;;;19.15;64.67
61026;BME280;46911;32.650;-16.902;2023-09-19T02:23:14;101877.47;;;19.14;64.64
61026;BME280;46911;32.650;-16.902;2023-09-19T02:25:18;101880.72;;;19.08;64.65
61026;BME280;46911;32.650;-16.902;2023-09-19T02:27:20;101866.00;;;19.01;65.05
61026;BME280;46911;32.650;-16.902;2023-09-19T02:29:23;101869.31;;;19.04;65.06
61026;BME280;46911;32.650;-16.902;2023-09-19T02:31:25;101872.53;;;18.98;65.35
61026;BME280;46911;32.650;-16.902;2023-09-19T02:33:28;101869.13;;;18.96;65.10
61026;BME280;46911;32.650;-16.902;2023-09-19T02:35:38;101842.63;;;18.79;65.29
61026;BME280;46911;32.650;-16.902;2023-09-19T02:37:39;101870.38;;;18.92;65.38
61026;BME280;46911;32.650;-16.902;2023-09-19T02:39:40;101866.16;;;18.88;65.38
61026;BME280;46911;32.650;-16.902;2023-09-19T02:41:46;101854.63;;;18.86;65.56
61026;BME280;46911;32.650;-16.902;2023-09-19T02:43:47;101867.25;;;18.97;65.67
61026;BME280;46911;32.650;-16.902;2023-09-19T02:45:50;101862.38;;;18.90;65.62
61026;BME280;46911;32.650;-16.902;2023-09-19T02:47:56;101871.50;;;18.89;65.79
61026;BME280;46911;32.650;-16.902;2023-09-19T02:49:57;101847.50;;;18.85;65.44
61026;BME280;46911;32.650;-16.902;2023-09-19T02:52:01;101853.88;;;18.84;65.46
61026;BME280;46911;32.650;-16.902;2023-09-19T02:54:05;101858.69;;;18.92;64.93
61026;BME280;46911;32.650;-16.902;2023-09-19T02:56:08;101848.47;;;18.95;65.32
61026;BME280;46911;32.650;-16.902;2023-09-19T02:58:10;101847.72;;;18.93;65.16
61026;BME280;46911;32.650;-16.902;2023-09-19T03:00:12;101846.88;;;18.93;65.25
61026;BME280;46911;32.650;-16.902;2023-09-19T03:02:14;101849.19;;;18.97;64.95
61026;BME280;46911;32.650;-16.902;2023-09-19T03:04:15;101849.06;;;18.99;64.77
61026;BME280;46911;32.650;-16.902;2023-09-19T03:06:22;101840.63;;;18.92;64.95
61026;BME280;46911;32.650;-16.902;2023-09-19T03:08:24;101844.44;;;18.89;65.07
61026;BME280;46911;32.650;-16.902;2023-09-19T03:10:28;101844.19;;;18.93;64.60
61026;BME280;46911;32.650;-16.902;2023-09-19T03:12:31;101832.63;;;18.90;64.08
61026;BME280;46911;32.650;-16.902;2023-09-19T03:14:35;101834.06;;;18.95;64.25
61026;BME280;46911;32.650;-16.902;2023-09-19T03:16:37;101849.13;;;19.09;63.85
61026;BME280;46911;32.650;-16.902;2023-09-19T03:18:41;101836.63;;;19.17;63.44
61026;BME280;46911;32.650;-16.902;2023-09-19T03:20:42;101836.97;;;19.24;62.95
61026;BME280;46911;32.650;-16.902;2023-09-19T03:22:43;101837.16;;;19.32;62.49
61026;BME280;46911;32.650;-16.902;2023-09-19T03:24:47;101835.50;;;19.41;62.29
61026;BME280;46911;32.650;-16.902;2023-09-19T03:26:48;101817.53;;;19.40;62.02
61026;BME280;46911;32.650;-16.902;2023-09-19T03:28:49;101828.41;;;19.50;62.10
61026;BME280;46911;32.650;-16.902;2023-09-19T03:31:02;101829.72;;;19.55;61.91
61026;BME280;46911;32.650;-16.902;2023-09-19T03:33:07;101827.84;;;19.56;61.83
61026;BME280;46911;32.650;-16.902;2023-09-19T03:35:09;101816.72;;;19.49;62.05
61026;BME280;46911;32.650;-16.902;2023-09-19T03:37:15;101821.81;;;19.43;62.66
61026;BME280;46911;32.650;-16.902;2023-09-19T03:39:16;101808.53;;;19.30;63.04
61026;BME280;46911;32.650;-16.902;2023-09-19T03:41:17;101801.09;;;19.22;62.92
61026;BME280;46911;32.650;-16.902;2023-09-19T03:43:21;101806.88;;;19.17;63.94
61026;BME280;46911;32.650;-16.902;2023-09-19T03:45:22;101798.44;;;19.11;63.70
61026;BME280;46911;32.650;-16.902;2023-09-19T03:47:26;101813.16;;;19.18;63.89
61026;BME280;46911;32.650;-16.902;2023-09-19T03:49:34;101805.00;;;19.08;64.39
61026;BME280;46911;32.650;-16.902;2023-09-19T03:51:38;101797.28;;;19.03;64.46
61026;BME280;46911;32.650;-16.902;2023-09-19T03:53:42;101793.97;;;19.00;64.72
61026;BME280;46911;32.650;-16.902;2023-09-19T03:55:45;101797.69;;;18.99;65.02
61026;BME280;46911;32.650;-16.902;2023-09-19T03:57:49;101793.50;;;18.95;64.55
61026;BME280;46911;32.650;-16.902;2023-09-19T03:59:51;101797.81;;;18.97;64.83
61026;BME280;46911;32.650;-16.902;2023-09-19T04:01:53;101796.34;;;18.93;64.53
61026;BME280;46911;32.650;-16.902;2023-09-19T04:03:58;101797.00;;;18.85;64.10
61026;BME280;46911;32.650;-16.902;2023-09-19T04:06:02;101788.69;;;18.77;64.09
61026;BME280;46911;32.650;-16.902;2023-09-19T04:08:03;101788.81;;;18.76;64.58
61026;BME280;46911;32.650;-16.902;2023-09-19T04:10:04;101777.16;;;18.75;64.21
61026;BME280;46911;32.650;-16.902;2023-09-19T04:12:09;101780.38;;;18.69;64.25
61026;BME280;46911;32.650;-16.902;2023-09-19T04:14:09;101773.53;;;18.65;64.13
61026;BME280;46911;32.650;-16.902;2023-09-19T04:16:14;101771.69;;;18.65;64.56
61026;BME280;46911;32.650;-16.902;2023-09-19T04:18:14;101775.75;;;18.60;64.47
61026;BME280;46911;32.650;-16.902;2023-09-19T04:20:21;101774.44;;;18.54;64.93
61026;BME280;46911;32.650;-16.902;2023-09-19T04:22:28;101757.56;;;18.40;64.99
61026;BME280;46911;32.650;-16.902;2023-09-19T04:24:31;101773.97;;;18.49;65.36
61026;BME280;46911;32.650;-16.902;2023-09-19T04:26:33;101773.00;;;18.50;65.18
61026;BME280;46911;32.650;-16.902;2023-09-19T04:28:34;101780.97;;;18.51;65.22
61026;BME280;46911;32.650;-16.902;2023-09-19T04:30:38;101779.97;;;18.52;65.52
61026;BME280;46911;32.650;-16.902;2023-09-19T04:32:45;101773.00;;;18.50;65.60
61026;BME280;46911;32.650;-16.902;2023-09-19T04:34:51;101771.28;;;18.49;65.19
61026;BME280;46911;32.650;-16.902;2023-09-19T04:36:54;101775.09;;;18.46;64.94
61026;BME280;46911;32.650;-16.902;2023-09-19T04:38:57;101767.53;;;18.40;64.94
61026;BME280;46911;32.650;-16.902;2023-09-19T04:40:58;101775.88;;;18.37;64.65
61026;BME280;46911;32.650;-16.902;2023-09-19T04:43:00;101786.16;;;18.43;64.20
61026;BME280;46911;32.650;-16.902;2023-09-19T04:45:03;101782.72;;;18.41;63.87
61026;BME280;46911;32.650;-16.902;2023-09-19T04:47:05;101786.31;;;18.42;64.19
61026;BME280;46911;32.650;-16.902;2023-09-19T04:49:09;101785.69;;;18.38;64.29
61026;BME280;46911;32.650;-16.902;2023-09-19T04:51:10;101787.28;;;18.40;64.13
61026;BME280;46911;32.650;-16.902;2023-09-19T04:53:11;101782.16;;;18.37;63.90
61026;BME280;46911;32.650;-16.902;2023-09-19T04:55:16;101772.06;;;18.39;63.53
61026;BME280;46911;32.650;-16.902;2023-09-19T04:57:18;101771.88;;;18.52;63.64
61026;BME280;46911;32.650;-16.902;2023-09-19T04:59:18;101780.13;;;18.51;63.69
61026;BME280;46911;32.650;-16.902;2023-09-19T05:01:22;101762.84;;;18.42;63.79
61026;BME280;46911;32.650;-16.902;2023-09-19T05:03:23;101763.94;;;18.39;63.75
61026;BME280;46911;32.650;-16.902;2023-09-19T05:05:24;101767.19;;;18.33;64.28
61026;BME280;46911;32.650;-16.902;2023-09-19T05:07:26;101772.69;;;18.32;64.77
61026;BME280;46911;32.650;-16.902;2023-09-19T05:09:27;101785.81;;;18.36;65.37
61026;BME280;46911;32.650;-16.902;2023-09-19T05:11:30;101786.09;;;18.33;65.24
61026;BME280;46911;32.650;-16.902;2023-09-19T05:13:34;101765.75;;;18.18;65.40
61026;BME280;46911;32.650;-16.902;2023-09-19T05:15:39;101775.19;;;18.23;65.39
61026;BME280;46911;32.650;-16.902;2023-09-19T05:17:40;101781.06;;;18.29;65.36
61026;BME280;46911;32.650;-16.902;2023-09-19T05:19:41;101791.72;;;18.30;65.45
61026;BME280;46911;32.650;-16.902;2023-09-19T05:21:42;101778.88;;;18.22;65.23
61026;BME280;46911;32.650;-16.902;2023-09-19T05:23:43;101790.00;;;18.29;65.89
61026;BME280;46911;32.650;-16.902;2023-09-19T05:25:46;101790.75;;;18.31;65.81
61026;BME280;46911;32.650;-16.902;2023-09-19T05:27:49;101783.63;;;18.30;66.02
61026;BME280;46911;32.650;-16.902;2023-09-19T05:29:55;101795.66;;;18.37;66.16
61026;BME280;46911;32.650;-16.902;2023-09-19T05:31:56;101803.34;;;18.42;66.63
61026;BME280;46911;32.650;-16.902;2023-09-19T05:33:58;101806.19;;;18.40;66.83
61026;BME280;46911;32.650;-16.902;2023-09-19T05:36:03;101795.25;;;18.42;66.09
61026;BME280;46911;32.650;-16.902;2023-09-19T05:38:05;101804.81;;;18.46;65.97
61026;BME280;46911;32.650;-16.902;2023-09-19T05:40:11;101815.75;;;18.45;66.28
61026;BME280;46911;32.650;-16.902;2023-09-19T05:42:12;101809.75;;;18.41;66.82
61026;BME280;46911;32.650;-16.902;2023-09-19T05:44:14;101800.31;;;18.35;67.11
61026;BME280;46911;32.650;-16.902;2023-09-19T05:46:15;101802.16;;;18.35;66.90
61026;BME280;46911;32.650;-16.902;2023-09-19T05:48:19;101809.28;;;18.36;67.07
61026;BME280;46911;32.650;-16.902;2023-09-19T05:50:21;101794.84;;;18.26;67.11
61026;BME280;46911;32.650;-16.902;2023-09-19T05:52:25;101807.94;;;18.30;66.94
61026;BME280;46911;32.650;-16.902;2023-09-19T05:54:30;101801.81;;;18.28;66.56
61026;BME280;46911;32.650;-16.902;2023-09-19T05:56:31;101807.81;;;18.32;66.26
61026;BME280;46911;32.650;-16.902;2023-09-19T05:58:32;101813.22;;;18.32;66.38
61026;BME280;46911;32.650;-16.902;2023-09-19T06:00:33;101794.34;;;18.20;66.25
61026;BME280;46911;32.650;-16.902;2023-09-19T06:02:36;101810.91;;;18.27;65.92
61026;BME280;46911;32.650;-16.902;2023-09-19T06:04:37;101812.16;;;18.23;66.44
61026;BME280;46911;32.650;-16.902;2023-09-19T06:06:43;101810.44;;;18.22;66.88
61026;BME280;46911;32.650;-16.902;2023-09-19T06:08:47;101816.31;;;18.27;66.82
61026;BME280;46911;32.650;-16.902;2023-09-19T06:10:54;101811.59;;;18.40;66.24
61026;BME280;46911;32.650;-16.902;2023-09-19T06:12:55;101808.16;;;18.38;65.63
61026;BME280;46911;32.650;-16.902;2023-09-19T06:14:56;101814.22;;;18.52;65.55
61026;BME280;46911;32.650;-16.902;2023-09-19T06:16:59;101806.25;;;18.50;65.78
61026;BME280;46911;32.650;-16.902;2023-09-19T06:19:03;101811.88;;;18.58;65.49
61026;BME280;46911;32.650;-16.902;2023-09-19T06:21:07;101819.34;;;18.66;65.56
61026;BME280;46911;32.650;-16.902;2023-09-19T06:23:10;101807.69;;;18.66;65.70
61026;BME280;46911;32.650;-16.902;2023-09-19T06:25:12;101819.28;;;18.78;65.60
61026;BME280;46911;32.650;-16.902;2023-09-19T06:27:18;101808.22;;;18.81;65.24
61026;BME280;46911;32.650;-16.902;2023-09-19T06:29:22;101813.59;;;18.92;64.88
61026;BME280;46911;32.650;-16.902;2023-09-19T06:31:28;101822.03;;;18.99;65.25
61026;BME280;46911;32.650;-16.902;2023-09-19T06:33:31;101826.31;;;19.01;65.09
61026;BME280;46911;32.650;-16.902;2023-09-19T06:35:33;101819.00;;;18.92;65.34
61026;BME280;46911;32.650;-16.902;2023-09-19T06:37:39;101821.69;;;18.92;65.09
61026;BME280;46911;32.650;-16.902;2023-09-19T06:39:41;101830.81;;;18.91;64.86
61026;BME280;46911;32.650;-16.902;2023-09-19T06:41:45;101826.97;;;18.94;65.21
61026;BME280;46911;32.650;-16.902;2023-09-19T06:43:46;101832.38;;;18.94;65.16
61026;BME280;46911;32.650;-16.902;2023-09-19T06:45:47;101828.81;;;18.93;65.04
61026;BME280;46911;32.650;-16.902;2023-09-19T06:47:51;101825.41;;;18.91;65.47
61026;BME280;46911;32.650;-16.902;2023-09-19T06:50:03;101835.41;;;19.00;65.67
61026;BME280;46911;32.650;-16.902;2023-09-19T06:52:08;101839.09;;;18.99;65.20
61026;BME280;46911;32.650;-16.902;2023-09-19T06:54:09;101837.13;;;19.01;65.42
61026;BME280;46911;32.650;-16.902;2023-09-19T06:56:10;101834.28;;;19.03;65.61
61026;BME280;46911;32.650;-16.902;2023-09-19T06:58:11;101835.28;;;19.02;65.72
61026;BME280;46911;32.650;-16.902;2023-09-19T07:00:16;101837.84;;;19.03;65.78
61026;BME280;46911;32.650;-16.902;2023-09-19T07:02:22;101844.22;;;19.02;66.06
61026;BME280;46911;32.650;-16.902;2023-09-19T07:04:23;101835.97;;;19.04;66.19
61026;BME280;46911;32.650;-16.902;2023-09-19T07:06:24;101841.53;;;19.02;66.76
61026;BME280;46911;32.650;-16.902;2023-09-19T07:08:25;101834.22;;;18.93;66.66
61026;BME280;46911;32.650;-16.902;2023-09-19T07:10:30;101842.78;;;18.98;67.13
61026;BME280;46911;32.650;-16.902;2023-09-19T07:12:31;101845.63;;;18.97;67.33
61026;BME280;46911;32.650;-16.902;2023-09-19T07:14:36;101844.50;;;18.99;67.74
61026;BME280;46911;32.650;-16.902;2023-09-19T07:16:39;101849.91;;;18.99;67.82
61026;BME280;46911;32.650;-16.902;2023-09-19T07:18:43;101855.94;;;19.03;68.14
61026;BME280;46911;32.650;-16.902;2023-09-19T07:20:48;101859.19;;;19.06;67.94
61026;BME280;46911;32.650;-16.902;2023-09-19T07:22:54;101839.94;;;19.00;68.20
61026;BME280;46911;32.650;-16.902;2023-09-19T07:25:00;101860.53;;;19.12;68.47
61026;BME280;46911;32.650;-16.902;2023-09-19T07:27:04;101852.63;;;19.20;68.15
61026;BME280;46911;32.650;-16.902;2023-09-19T07:29:06;101858.06;;;19.30;68.08
61026;BME280;46911;32.650;-16.902;2023-09-19T07:31:09;101856.28;;;19.40;67.55
61026;BME280;46911;32.650;-16.902;2023-09-19T07:33:10;101854.19;;;19.44;67.07
61026;BME280;46911;32.650;-16.902;2023-09-19T07:35:14;101868.59;;;19.54;67.03
61026;BME280;46911;32.650;-16.902;2023-09-19T07:37:15;101869.06;;;19.60;66.69
61026;BME280;46911;32.650;-16.902;2023-09-19T07:39:17;101861.53;;;19.63;66.49
61026;BME280;46911;32.650;-16.902;2023-09-19T07:41:20;101862.22;;;19.65;66.28
61026;BME280;46911;32.650;-16.902;2023-09-19T07:43:23;101866.97;;;19.73;66.38
61026;BME280;46911;32.650;-16.902;2023-09-19T07:45:25;101869.97;;;19.80;66.08
61026;BME280;46911;32.650;-16.902;2023-09-19T07:47:27;101874.75;;;19.87;65.97
61026;BME280;46911;32.650;-16.902;2023-09-19T07:49:30;101876.19;;;19.92;65.77
61026;BME280;46911;32.650;-16.902;2023-09-19T07:51:31;101863.25;;;19.95;65.93
61026;BME280;46911;32.650;-16.902;2023-09-19T07:53:36;101870.09;;;19.99;65.93
61026;BME280;46911;32.650;-16.902;2023-09-19T07:55:40;101855.97;;;20.05;65.77
61026;BME280;46911;32.650;-16.902;2023-09-19T07:57:44;101871.28;;;20.16;65.36
61026;BME280;46911;32.650;-16.902;2023-09-19T07:59:46;101871.28;;;20.26;65.24
61026;BME280;46911;32.650;-16.902;2023-09-19T08:01:52;101864.16;;;20.25;65.38
61026;BME280;46911;32.650;-16.902;2023-09-19T08:03:52;101874.16;;;20.34;64.92
61026;BME280;46911;32.650;-16.902;2023-09-19T08:05:58;101870.72;;;20.32;65.44
61026;BME280;46911;32.650;-16.902;2023-09-19T08:08:04;101875.88;;;20.35;65.37
61026;BME280;46911;32.650;-16.902;2023-09-19T08:10:09;101870.31;;;20.37;65.69
61026;BME280;46911;32.650;-16.902;2023-09-19T08:12:18;101876.56;;;20.37;65.36
61026;BME280;46911;32.650;-16.902;2023-09-19T08:14:21;101872.72;;;20.40;65.47
61026;BME280;46911;32.650;-16.902;2023-09-19T08:16:23;101870.75;;;20.52;65.55
61026;BME280;46911;32.650;-16.902;2023-09-19T08:18:29;101874.88;;;20.56;65.27
61026;BME280;46911;32.650;-16.902;2023-09-19T08:20:36;101872.47;;;20.63;65.14
61026;BME280;46911;32.650;-16.902;2023-09-19T08:22:38;101872.81;;;20.79;64.63
61026;BME280;46911;32.650;-16.902;2023-09-19T08:24:39;101875.06;;;20.84;64.34
61026;BME280;46911;32.650;-16.902;2023-09-19T08:26:43;101873.63;;;20.89;64.35
61026;BME280;46911;32.650;-16.902;2023-09-19T08:28:48;101879.91;;;21.00;64.52
61026;BME280;46911;32.650;-16.902;2023-09-19T08:30:52;101872.88;;;21.07;64.23
61026;BME280;46911;32.650;-16.902;2023-09-19T08:32:58;101869.88;;;21.20;64.19
61026;BME280;46911;32.650;-16.902;2023-09-19T08:35:05;101870.72;;;21.30;64.28
61026;BME280;46911;32.650;-16.902;2023-09-19T08:37:06;101884.09;;;21.41;64.12
61026;BME280;46911;32.650;-16.902;2023-09-19T08:39:10;101885.81;;;21.62;63.74
61026;BME280;46911;32.650;-16.902;2023-09-19T08:41:17;101889.81;;;21.86;63.18
61026;BME280;46911;32.650;-16.902;2023-09-19T08:43:21;101887.41;;;22.11;62.28
61026;BME280;46911;32.650;-16.902;2023-09-19T08:45:24;101887.00;;;22.33;61.65
61026;BME280;46911;32.650;-16.902;2023-09-19T08:47:34;101878.88;;;22.51;60.83
61026;BME280;46911;32.650;-16.902;2023-09-19T08:50:08;101881.94;;;22.66;60.82
61026;BME280;46911;32.650;-16.902;2023-09-19T08:52:23;101880.84;;;22.77;60.87
61026;BME280;46911;32.650;-16.902;2023-09-19T08:54:33;101880.03;;;22.85;60.22
61026;BME280;46911;32.650;-16.902;2023-09-19T08:56:39;101887.47;;;23.01;60.16
61026;BME280;46911;32.650;-16.902;2023-09-19T08:58:50;101889.81;;;23.14;59.81
61026;BME280;46911;32.650;-16.902;2023-09-19T09:00:56;101871.38;;;23.26;58.91
61026;BME280;46911;32.650;-16.902;2023-09-19T09:03:02;101885.19;;;23.32;58.89
61026;BME280;46911;32.650;-16.902;2023-09-19T09:05:08;101892.72;;;23.38;58.89
61026;BME280;46911;32.650;-16.902;2023-09-19T09:07:15;101898.47;;;23.62;58.47
61026;BME280;46911;32.650;-16.902;2023-09-19T09:09:17;101894.41;;;23.92;58.14
61026;BME280;46911;32.650;-16.902;2023-09-19T09:11:19;101893.00;;;23.88;56.99
61026;BME280;46911;32.650;-16.902;2023-09-19T09:13:22;101901.09;;;23.80;57.21
61026;BME280;46911;32.650;-16.902;2023-09-19T09:15:28;101904.94;;;23.61;57.07
61026;BME280;46911;32.650;-16.902;2023-09-19T09:17:31;101902.13;;;23.44;57.48
61026;BME280;46911;32.650;-16.902;2023-09-19T09:19:32;101902.78;;;23.46;57.88
61026;BME280;46911;32.650;-16.902;2023-09-19T09:21:33;101896.66;;;23.70;56.86
61026;BME280;46911;32.650;-16.902;2023-09-19T09:23:37;101906.75;;;23.86;56.89
61026;BME280;46911;32.650;-16.902;2023-09-19T09:25:52;101895.25;;;23.93;57.06
61026;BME280;46911;32.650;-16.902;2023-09-19T09:28:02;101903.47;;;24.09;55.60
61026;BME280;46911;32.650;-16.902;2023-09-19T09:30:04;101900.41;;;24.04;54.89
61026;BME280;46911;32.650;-16.902;2023-09-19T09:32:25;101903.16;;;24.71;53.98
61026;BME280;46911;32.650;-16.902;2023-09-19T09:34:33;101888.13;;;26.29;51.73
61026;BME280;46911;32.650;-16.902;2023-09-19T09:36:40;101902.31;;;28.00;47.06
61026;BME280;46911;32.650;-16.902;2023-09-19T09:38:48;101897.63;;;29.11;44.81
61026;BME280;46911;32.650;-16.902;2023-09-19T09:40:55;101906.88;;;29.95;42.52
61026;BME280;46911;32.650;-16.902;2023-09-19T09:43:35;101907.72;;;30.64;40.39
61026;BME280;46911;32.650;-16.902;2023-09-19T09:45:39;101912.22;;;31.05;39.46
61026;BME280;46911;32.650;-16.902;2023-09-19T09:47:51;101904.19;;;31.10;38.67
61026;BME280;46911;32.650;-16.902;2023-09-19T09:49:56;101923.88;;;31.27;38.40
61026;BME280;46911;32.650;-16.902;2023-09-19T09:52:07;101918.75;;;30.97;38.24
61026;BME280;46911;32.650;-16.902;2023-09-19T09:54:20;101914.34;;;30.89;38.64
61026;BME280;46911;32.650;-16.902;2023-09-19T09:56:24;101916.03;;;31.11;38.75
61026;BME280;46911;32.650;-16.902;2023-09-19T09:58:28;101903.72;;;30.86;38.51
61026;BME280;46911;32.650;-16.902;2023-09-19T10:00:52;101910.09;;;30.18;39.41
61026;BME280;46911;32.650;-16.902;2023-09-19T10:02:57;101905.22;;;31.09;38.91
61026;BME280;46911;32.650;-16.902;2023-09-19T10:05:14;101919.00;;;31.29;38.46
61026;BME280;46911;32.650;-16.902;2023-09-19T10:07:25;101926.22;;;31.30;38.74
61026;BME280;46911;32.650;-16.902;2023-09-19T10:09:44;101921.53;;;31.31;38.34
61026;BME280;46911;32.650;-16.902;2023-09-19T10:11:47;101925.72;;;30.66;39.21
61026;BME280;46911;32.650;-16.902;2023-09-19T10:13:58;101921.50;;;30.02;40.19
61026;BME280;46911;32.650;-16.902;2023-09-19T10:16:06;101925.75;;;30.11;40.99
61026;BME280;46911;32.650;-16.902;2023-09-19T10:18:11;101923.63;;;30.68;39.93
61026;BME280;46911;32.650;-16.902;2023-09-19T10:20:21;101920.25;;;31.60;37.66
61026;BME280;46911;32.650;-16.902;2023-09-19T10:22:34;101924.31;;;31.04;38.51
61026;BME280;46911;32.650;-16.902;2023-09-19T10:24:36;101918.16;;;31.29;38.42
61026;BME280;46911;32.650;-16.902;2023-09-19T10:26:39;101915.59;;;31.34;37.37
61026;BME280;46911;32.650;-16.902;2023-09-19T10:28:49;101923.25;;;31.12;37.63
61026;BME280;46911;32.650;-16.902;2023-09-19T10:30:51;101919.38;;;30.72;38.81
61026;BME280;46911;32.650;-16.902;2023-09-19T10:33:01;101911.03;;;29.84;39.68
61026;BME280;46911;32.650;-16.902;2023-09-19T10:35:04;101915.41;;;30.13;39.32
61026;BME280;46911;32.650;-16.902;2023-09-19T10:37:08;101910.50;;;30.84;38.99
61026;BME280;46911;32.650;-16.902;2023-09-19T10:39:17;101919.88;;;31.23;38.06
61026;BME280;46911;32.650;-16.902;2023-09-19T10:41:25;101920.69;;;31.24;37.92
61026;BME280;46911;32.650;-16.902;2023-09-19T10:43:32;101921.13;;;30.25;39.39
61026;BME280;46911;32.650;-16.902;2023-09-19T10:45:38;101924.91;;;28.69;42.28